createdAt,value
2018-04-17T00:02:00.817Z,70.80
2018-04-17T00:04:29.232Z,70.80
2018-04-17T00:06:56.854Z,70.80
2018-04-17T00:09:25.255Z,70.80
2018-04-17T00:11:52.907Z,70.80
2018-04-17T00:14:20.529Z,70.80
2018-04-17T00:16:48.166Z,70.80
2018-04-17T00:19:15.799Z,70.80
2018-04-17T00:21:43.427Z,70.80
2018-04-17T00:24:11.060Z,70.80
2018-04-17T00:26:38.700Z,71.70
2018-04-17T00:29:06.328Z,70.80
2018-04-17T00:31:34.730Z,70.90
2018-04-17T00:34:02.419Z,70.90
2018-04-17T00:36:30.048Z,70.80
2018-04-17T00:38:57.744Z,70.70
2018-04-17T00:41:25.377Z,70.70
2018-04-17T00:43:53.076Z,70.80
2018-04-17T00:46:20.704Z,70.80
2018-04-17T00:48:48.400Z,70.90
2018-04-17T00:51:16.018Z,70.90
2018-04-17T00:53:51.178Z,70.80
2018-04-17T00:56:18.866Z,70.80
2018-04-17T00:58:46.526Z,70.80
2018-04-17T01:01:14.155Z,70.80
2018-04-17T01:03:42.547Z,70.80
2018-04-17T01:06:10.237Z,70.80
2018-04-17T01:08:38.889Z,70.80
2018-04-17T01:11:06.587Z,70.80
2018-04-17T01:13:34.225Z,70.80
2018-04-17T01:16:01.854Z,70.80
2018-04-17T01:18:29.480Z,70.80
2018-04-17T01:20:57.137Z,70.90
2018-04-17T01:23:24.800Z,70.90
2018-04-17T01:25:52.419Z,70.90
2018-04-17T01:28:20.812Z,70.80
2018-04-17T01:30:48.439Z,70.90
2018-04-17T01:33:16.167Z,70.80
2018-04-17T01:35:43.939Z,71.60
2018-04-17T01:38:11.594Z,71.00
2018-04-17T01:40:40.007Z,70.80
2018-04-17T01:43:08.223Z,70.90
2018-04-17T01:45:35.851Z,70.80
2018-04-17T01:48:03.482Z,71.00
2018-04-17T01:50:31.097Z,70.80
2018-04-17T01:52:59.483Z,70.90
2018-04-17T01:55:27.905Z,70.90
2018-04-17T01:57:55.531Z,70.90
2018-04-17T02:00:23.220Z,70.90
2018-04-17T02:02:50.887Z,70.90
2018-04-17T02:05:18.508Z,70.90
2018-04-17T02:07:46.934Z,71.00
2018-04-17T02:10:14.594Z,71.00
2018-04-17T02:12:42.257Z,70.90
2018-04-17T02:15:09.932Z,70.90
2018-04-17T02:17:37.663Z,70.90
2018-04-17T02:20:05.352Z,71.00
2018-04-17T02:22:32.996Z,71.00
2018-04-17T02:25:00.790Z,71.00
2018-04-17T02:27:28.411Z,71.00
2018-04-17T02:29:56.124Z,70.90
2018-04-17T02:32:23.743Z,70.90
2018-04-17T02:34:51.431Z,71.00
2018-04-17T02:37:19.102Z,70.90
2018-04-17T02:39:46.733Z,70.90
2018-04-17T02:42:14.664Z,71.00
2018-04-17T02:44:42.300Z,70.90
2018-04-17T02:47:10.260Z,71.00
2018-04-17T02:49:39.123Z,71.00
2018-04-17T02:52:06.815Z,71.00
2018-04-17T02:54:34.478Z,70.90
2018-04-17T02:57:02.152Z,71.00
2018-04-17T02:59:29.777Z,71.00
2018-04-17T03:01:57.468Z,71.00
2018-04-17T03:04:25.136Z,71.00
2018-04-17T03:06:52.800Z,71.00
2018-04-17T03:09:20.451Z,71.00
2018-04-17T03:11:48.116Z,70.90
2018-04-17T03:14:15.783Z,71.00
2018-04-17T03:16:43.411Z,71.00
2018-04-17T03:19:11.048Z,71.00
2018-04-17T03:21:39.895Z,71.00
2018-04-17T03:24:08.147Z,70.50
2018-04-17T03:26:35.844Z,71.10
2018-04-17T03:29:03.507Z,71.10
2018-04-17T03:31:31.137Z,71.00
2018-04-17T03:33:58.905Z,71.10
2018-04-17T03:36:26.591Z,71.10
2018-04-17T03:38:54.255Z,71.00
2018-04-17T03:41:21.892Z,71.00
2018-04-17T03:43:49.673Z,71.10
2018-04-17T03:46:17.355Z,71.00
2018-04-17T03:48:44.985Z,71.00
2018-04-17T03:51:12.611Z,70.90
2018-04-17T03:53:40.280Z,71.00
2018-04-17T03:56:08.811Z,71.10
2018-04-17T03:58:36.436Z,71.00
2018-04-17T04:01:04.964Z,71.10
2018-04-17T04:03:32.599Z,71.10
2018-04-17T04:06:00.230Z,71.10
2018-04-17T04:08:27.855Z,71.10
2018-04-17T04:10:55.486Z,72.10
2018-04-17T04:13:23.211Z,71.10
2018-04-17T04:15:50.832Z,71.10
2018-04-17T04:18:30.278Z,71.10
2018-04-17T04:21:09.772Z,71.10
2018-04-17T04:23:50.199Z,71.00
2018-04-17T04:26:29.872Z,71.10
2018-04-17T04:28:57.532Z,71.00
2018-04-17T04:31:25.134Z,71.20
2018-04-17T04:33:52.749Z,71.10
2018-04-17T04:36:20.551Z,71.10
2018-04-17T04:38:48.241Z,71.20
2018-04-17T04:41:15.910Z,71.10
2018-04-17T04:43:43.540Z,71.20
2018-04-17T04:46:11.235Z,71.10
2018-04-17T04:48:39.926Z,71.10
2018-04-17T04:51:16.578Z,71.10
2018-04-17T04:53:53.316Z,71.10
2018-04-17T04:56:21.732Z,71.10
2018-04-17T04:58:49.357Z,71.10
2018-04-17T05:01:16.985Z,71.10
2018-04-17T05:03:44.613Z,71.30
2018-04-17T05:06:12.244Z,71.10
2018-04-17T05:08:39.967Z,71.10
2018-04-17T05:11:08.114Z,71.10
2018-04-17T05:13:35.810Z,71.10
2018-04-17T05:16:03.437Z,71.00
2018-04-17T05:18:31.143Z,71.10
2018-04-17T05:20:58.895Z,71.10
2018-04-17T05:23:26.562Z,71.10
2018-04-17T05:25:54.186Z,71.10
2018-04-17T05:28:22.567Z,71.00
2018-04-17T05:30:50.974Z,71.00
2018-04-17T05:33:18.644Z,71.00
2018-04-17T05:35:46.269Z,70.90
2018-04-17T05:38:14.661Z,70.90
2018-04-17T05:40:42.287Z,70.90
2018-04-17T05:43:09.924Z,70.90
2018-04-17T05:45:37.649Z,70.80
2018-04-17T05:48:05.276Z,70.80
2018-04-17T05:50:33.005Z,70.80
2018-04-17T05:53:00.628Z,70.70
2018-04-17T05:55:28.991Z,70.70
2018-04-17T05:57:57.371Z,71.40
2018-04-17T06:00:24.950Z,70.70
2018-04-17T06:02:52.595Z,70.70
2018-04-17T06:05:20.175Z,70.60
2018-04-17T06:07:47.819Z,70.60
2018-04-17T06:10:15.400Z,70.50
2018-04-17T06:12:43.043Z,70.40
2018-04-17T06:15:11.381Z,71.60
2018-04-17T06:17:40.269Z,70.70
2018-04-17T06:20:08.725Z,70.60
2018-04-17T06:22:36.363Z,70.60
2018-04-17T06:25:04.732Z,70.50
2018-04-17T06:27:32.407Z,70.50
2018-04-17T06:30:00.063Z,71.30
2018-04-17T06:32:27.722Z,70.60
2018-04-17T06:34:55.388Z,70.70
2018-04-17T06:37:22.960Z,70.60
2018-04-17T06:39:51.333Z,70.80
2018-04-17T06:42:19.703Z,70.80
2018-04-17T06:44:47.847Z,70.80
2018-04-17T06:47:15.453Z,70.70
2018-04-17T06:49:43.801Z,70.30
2018-04-17T06:52:11.493Z,70.30
2018-04-17T06:54:39.867Z,70.20
2018-04-17T06:57:09.273Z,70.90
2018-04-17T06:59:38.081Z,70.70
2018-04-17T07:02:06.444Z,69.90
2018-04-17T07:04:34.828Z,69.70
2018-04-17T07:07:03.168Z,69.70
2018-04-17T07:09:30.743Z,69.70
2018-04-17T07:11:58.319Z,69.70
2018-04-17T07:14:27.398Z,69.50
2018-04-17T07:16:55.018Z,69.50
2018-04-17T07:19:22.639Z,69.40
2018-04-17T07:21:50.224Z,69.40
2018-04-17T07:24:17.805Z,69.30
2018-04-17T07:26:45.430Z,69.20
2018-04-17T07:29:13.767Z,69.20
2018-04-17T07:31:41.336Z,69.20
2018-04-17T07:34:10.160Z,69.10
2018-04-17T07:36:38.510Z,69.90
2018-04-17T07:39:06.095Z,69.10
2018-04-17T07:41:33.668Z,69.00
2018-04-17T07:44:01.999Z,69.00
2018-04-17T07:46:29.592Z,68.90
2018-04-17T07:49:05.969Z,68.90
2018-04-17T07:51:34.394Z,68.90
2018-04-17T07:54:02.695Z,68.80
2018-04-17T07:56:30.271Z,68.80
2018-04-17T07:58:57.840Z,68.80
2018-04-17T08:01:25.413Z,68.80
2018-04-17T08:03:53.753Z,68.90
2018-04-17T08:06:21.352Z,68.80
2018-04-17T08:08:49.698Z,68.80
2018-04-17T08:11:17.263Z,68.80
2018-04-17T08:13:44.826Z,68.80
2018-04-17T08:16:12.401Z,68.70
2018-04-17T08:18:40.055Z,68.70
2018-04-17T08:21:08.147Z,68.80
2018-04-17T08:23:36.511Z,68.80
2018-04-17T08:26:04.081Z,68.80
2018-04-17T08:28:31.754Z,68.70
2018-04-17T08:30:59.325Z,68.60
2018-04-17T08:33:27.663Z,68.50
2018-04-17T08:35:55.253Z,68.50
2018-04-17T08:38:23.592Z,69.10
2018-04-17T08:40:51.167Z,68.50
2018-04-17T08:43:18.754Z,68.50
2018-04-17T08:45:47.099Z,68.50
2018-04-17T08:48:14.669Z,68.50
2018-04-17T08:50:42.242Z,68.60
2018-04-17T08:53:09.917Z,68.60
2018-04-17T08:55:39.488Z,69.40
2018-04-17T08:58:07.088Z,68.50
2018-04-17T09:00:35.419Z,68.50
2018-04-17T09:03:02.986Z,68.50
2018-04-17T09:05:30.583Z,68.50
2018-04-17T09:07:58.255Z,69.20
2018-04-17T09:10:25.910Z,68.50
2018-04-17T09:12:53.506Z,68.50
2018-04-17T09:15:21.148Z,68.50
2018-04-17T09:17:49.479Z,68.60
2018-04-17T09:20:17.051Z,68.50
2018-04-17T09:22:44.624Z,68.50
2018-04-17T09:25:12.307Z,68.50
2018-04-17T09:27:40.688Z,68.60
2018-04-17T09:30:10.257Z,68.60
2018-04-17T09:32:38.978Z,68.60
2018-04-17T09:35:08.005Z,68.70
2018-04-17T09:37:35.645Z,68.70
2018-04-17T09:40:03.996Z,68.70
2018-04-17T09:42:31.590Z,68.70
2018-04-17T09:44:59.933Z,68.70
2018-04-17T09:47:27.512Z,68.70
2018-04-17T09:49:55.110Z,68.70
2018-04-17T09:52:22.695Z,68.70
2018-04-17T09:54:50.273Z,68.70
2018-04-17T09:57:17.888Z,68.80
2018-04-17T09:59:45.456Z,68.70
2018-04-17T10:05:10.512Z,68.70
2018-04-17T10:07:39.499Z,68.70
2018-04-17T10:10:07.179Z,68.80
2018-04-17T10:12:35.535Z,68.80
2018-04-17T10:15:03.103Z,68.80
2018-04-17T10:17:30.680Z,68.80
2018-04-17T10:19:59.021Z,68.80
2018-04-17T10:22:26.590Z,68.80
2018-04-17T10:24:54.275Z,68.80
2018-04-17T10:27:21.876Z,68.80
2018-04-17T10:29:49.485Z,68.90
2018-04-17T10:32:17.035Z,69.00
2018-04-17T10:34:44.623Z,68.80
2018-04-17T10:37:13.009Z,69.00
2018-04-17T10:39:41.382Z,69.00
2018-04-17T10:42:10.115Z,68.90
2018-04-17T10:44:38.161Z,69.00
2018-04-17T10:47:06.519Z,69.80
2018-04-17T10:49:34.086Z,69.00
2018-04-17T10:52:02.470Z,69.10
2018-04-17T10:54:30.808Z,69.00
2018-04-17T10:56:58.407Z,69.10
2018-04-17T10:59:26.745Z,69.10
2018-04-17T11:01:54.316Z,69.00
2018-04-17T11:04:21.903Z,69.00
2018-04-17T11:06:50.287Z,69.10
2018-04-17T11:09:18.648Z,69.00
2018-04-17T11:11:46.328Z,69.00
2018-04-17T11:14:14.704Z,69.00
2018-04-17T11:16:42.374Z,69.00
2018-04-17T11:19:10.707Z,69.00
2018-04-17T11:21:39.180Z,69.00
2018-04-17T11:24:06.795Z,69.00
2018-04-17T11:26:35.140Z,69.00
2018-04-17T11:29:02.805Z,69.00
2018-04-17T11:31:30.400Z,69.00
2018-04-17T11:33:58.736Z,69.00
2018-04-17T11:36:26.344Z,69.00
2018-04-17T11:38:54.727Z,69.00
2018-04-17T11:41:23.097Z,68.90
2018-04-17T11:43:51.475Z,68.90
2018-04-17T11:46:19.147Z,68.90
2018-04-17T11:48:47.521Z,69.70
2018-04-17T11:51:15.872Z,69.50
2018-04-17T11:53:43.459Z,68.80
2018-04-17T11:56:11.044Z,68.90
2018-04-17T11:58:38.688Z,69.20
2018-04-17T12:01:07.032Z,69.00
2018-04-17T12:03:34.622Z,69.00
2018-04-17T12:06:02.204Z,68.90
2018-04-17T12:08:29.775Z,69.00
2018-04-17T12:10:57.355Z,69.00
2018-04-17T12:13:24.940Z,69.00
2018-04-17T12:15:52.517Z,69.00
2018-04-17T12:18:20.198Z,69.00
2018-04-17T12:20:48.555Z,69.00
2018-04-17T12:23:16.956Z,69.00
2018-04-17T12:25:45.303Z,69.00
2018-04-17T12:28:12.905Z,69.00
2018-04-17T12:30:40.581Z,69.00
2018-04-17T12:33:09.360Z,69.00
2018-04-17T12:35:38.126Z,69.00
2018-04-17T12:38:05.697Z,69.00
2018-04-17T12:40:33.360Z,69.10
2018-04-17T12:43:01.758Z,69.10
2018-04-17T12:45:30.095Z,69.00
2018-04-17T12:47:57.670Z,69.00
2018-04-17T12:50:25.235Z,69.10
2018-04-17T12:52:52.899Z,69.00
2018-04-17T12:55:20.569Z,69.10
2018-04-17T12:57:48.915Z,69.20
2018-04-17T13:00:16.507Z,69.00
2018-04-17T13:02:44.080Z,69.00
2018-04-17T13:05:12.432Z,69.10
2018-04-17T13:07:40.012Z,69.10
2018-04-17T13:10:09.380Z,69.20
2018-04-17T13:12:36.979Z,69.10
2018-04-17T13:15:05.358Z,69.10
2018-04-17T13:17:33.735Z,69.20
2018-04-17T13:20:01.304Z,69.00
2018-04-17T13:22:29.643Z,69.10
2018-04-17T13:24:57.260Z,69.10
2018-04-17T13:27:25.226Z,69.10
2018-04-17T13:29:52.871Z,69.10
2018-04-17T13:32:21.207Z,69.10
2018-04-17T13:34:48.811Z,69.10
2018-04-17T13:37:16.394Z,69.10
2018-04-17T13:39:44.011Z,69.10
2018-04-17T13:42:11.602Z,69.10
2018-04-17T13:44:40.150Z,69.10
2018-04-17T13:47:08.914Z,69.10
2018-04-17T13:49:36.492Z,69.00
2018-04-17T13:52:04.059Z,69.10
2018-04-17T13:54:31.625Z,69.00
2018-04-17T13:56:59.214Z,69.00
2018-04-17T13:59:26.777Z,69.00
2018-04-17T14:01:55.122Z,69.10
2018-04-17T14:04:22.696Z,69.00
2018-04-17T14:06:50.396Z,69.10
2018-04-17T14:09:18.757Z,69.10
2018-04-17T14:11:47.086Z,69.10
2018-04-17T14:14:14.659Z,69.00
2018-04-17T14:16:42.226Z,69.00
2018-04-17T14:19:09.789Z,69.10
2018-04-17T14:21:38.114Z,69.10
2018-04-17T14:24:05.765Z,69.10
2018-04-17T14:26:34.265Z,69.10
2018-04-17T14:29:01.895Z,69.10
2018-04-17T14:31:29.567Z,69.10
2018-04-17T14:33:57.261Z,69.10
2018-04-17T14:36:25.212Z,69.10
2018-04-17T14:38:53.715Z,69.20
2018-04-17T14:41:21.344Z,69.20
2018-04-17T14:43:49.011Z,69.20
2018-04-17T14:46:16.656Z,69.20
2018-04-17T14:48:44.236Z,69.20
2018-04-17T14:51:12.618Z,69.30
2018-04-17T14:53:41.083Z,69.20
2018-04-17T14:56:09.212Z,69.30
2018-04-17T14:58:36.836Z,69.30
2018-04-17T15:01:05.208Z,69.40
2018-04-17T15:03:32.806Z,69.40
2018-04-17T15:06:26.153Z,69.40
2018-04-17T15:08:55.053Z,69.40
2018-04-17T15:11:22.647Z,69.40
2018-04-17T15:13:50.295Z,69.40
2018-04-17T15:16:17.897Z,69.10
2018-04-17T15:18:45.546Z,68.80
2018-04-17T15:21:13.143Z,68.90
2018-04-17T15:23:41.384Z,68.90
2018-04-17T15:26:09.764Z,68.90
2018-04-17T15:28:38.095Z,68.90
2018-04-17T15:31:06.553Z,68.80
2018-04-17T15:33:34.203Z,68.80
2018-04-17T15:36:01.771Z,68.80
2018-04-17T15:38:30.303Z,68.80
2018-04-17T15:40:57.895Z,68.80
2018-04-17T15:43:25.611Z,68.70
2018-04-17T15:45:53.199Z,68.70
2018-04-17T15:48:21.186Z,68.70
2018-04-17T15:50:48.769Z,68.80
2018-04-17T15:53:17.905Z,68.80
2018-04-17T15:55:45.746Z,68.80
2018-04-17T15:58:13.428Z,68.80
2018-04-17T16:00:41.766Z,68.90
2018-04-17T16:03:10.644Z,68.80
2018-04-17T16:05:39.978Z,68.90
2018-04-17T16:08:08.080Z,68.90
2018-04-17T16:10:36.423Z,68.90
2018-04-17T16:13:04.025Z,68.90
2018-04-17T16:15:32.351Z,69.00
2018-04-17T16:17:59.992Z,68.90
2018-04-17T16:20:27.566Z,68.90
2018-04-17T16:22:55.266Z,68.90
2018-04-17T16:25:22.850Z,68.90
2018-04-17T16:27:51.188Z,69.00
2018-04-17T16:30:18.893Z,69.00
2018-04-17T16:32:47.350Z,69.00
2018-04-17T16:35:14.921Z,69.00
2018-04-17T16:37:43.258Z,69.00
2018-04-17T16:40:10.848Z,69.10
2018-04-17T16:42:39.309Z,69.10
2018-04-17T16:45:06.935Z,69.00
2018-04-17T16:47:34.604Z,69.10
2018-04-17T16:50:02.172Z,69.10
2018-04-17T16:52:29.747Z,69.10
2018-04-17T16:54:57.333Z,69.00
2018-04-17T16:57:24.917Z,69.10
2018-04-17T16:59:53.264Z,69.10
2018-04-17T17:02:20.943Z,69.10
2018-04-17T17:04:48.617Z,69.10
2018-04-17T17:07:17.001Z,69.10
2018-04-17T17:09:45.397Z,69.10
2018-04-17T17:12:13.042Z,69.10
2018-04-17T17:14:41.392Z,69.10
2018-04-17T17:17:10.124Z,69.10
2018-04-17T17:19:38.918Z,69.10
2018-04-17T17:22:06.511Z,69.10
2018-04-17T17:24:34.155Z,69.10
2018-04-17T17:27:01.730Z,69.10
2018-04-17T17:29:29.352Z,69.20
2018-04-17T17:31:57.722Z,69.20
2018-04-17T17:34:25.389Z,69.20
2018-04-17T17:36:53.750Z,69.30
2018-04-17T17:39:22.171Z,69.30
2018-04-17T17:44:56.325Z,69.00
2018-04-17T17:47:23.899Z,69.10
2018-04-17T17:49:51.489Z,69.20
2018-04-17T17:52:19.144Z,69.20
2018-04-17T17:54:46.840Z,69.20
2018-04-17T17:57:15.179Z,69.30
2018-04-17T17:59:42.781Z,69.20
2018-04-17T18:02:11.134Z,69.20
2018-04-17T18:04:38.721Z,69.20
2018-04-17T18:07:07.125Z,69.30
2018-04-17T18:09:34.694Z,69.30
2018-04-17T18:12:02.319Z,69.30
2018-04-17T18:14:30.663Z,69.30
2018-04-17T18:16:58.268Z,69.30
2018-04-17T18:19:26.626Z,69.20
2018-04-17T18:21:54.301Z,69.20
2018-04-17T18:24:22.701Z,70.00
2018-04-17T18:26:50.304Z,69.10
2018-04-17T18:29:17.909Z,69.20
2018-04-17T18:31:46.253Z,69.20
2018-04-17T18:34:13.835Z,69.10
2018-04-17T18:36:41.411Z,69.20
2018-04-17T18:39:09.833Z,69.30
2018-04-17T18:41:39.043Z,69.20
2018-04-17T18:44:06.691Z,69.20
2018-04-17T18:46:34.390Z,69.20
2018-04-17T18:49:01.955Z,69.20
2018-04-17T18:51:29.559Z,69.30
2018-04-17T18:53:57.272Z,69.30
2018-04-17T18:56:24.844Z,69.40
2018-04-17T18:58:52.555Z,69.40
2018-04-17T19:01:20.909Z,69.40
2018-04-17T19:03:50.553Z,69.40
2018-04-17T19:06:18.137Z,69.40
2018-04-17T19:08:45.712Z,69.40
2018-04-17T19:11:13.287Z,69.50
2018-04-17T19:13:40.984Z,69.40
2018-04-17T19:16:08.618Z,69.40
2018-04-17T19:18:36.190Z,69.40
2018-04-17T19:21:04.571Z,69.40
2018-04-17T19:23:32.939Z,69.50
2018-04-17T19:26:00.512Z,69.50
2018-04-17T19:28:28.888Z,69.50
2018-04-17T19:30:57.234Z,69.50
2018-04-17T19:33:24.804Z,69.50
2018-04-17T19:35:52.384Z,69.50
2018-04-17T19:38:20.062Z,69.50
2018-04-17T19:40:48.395Z,69.60
2018-04-17T19:43:15.972Z,69.60
2018-04-17T19:45:43.656Z,69.50
2018-04-17T19:48:12.031Z,69.60
2018-04-17T19:50:40.421Z,69.50
2018-04-17T19:53:09.926Z,69.50
2018-04-17T19:55:39.314Z,69.50
2018-04-17T19:58:06.882Z,69.50
2018-04-17T20:00:34.453Z,69.50
2018-04-17T20:03:02.931Z,69.50
2018-04-17T20:05:31.307Z,69.50
2018-04-17T20:07:58.963Z,69.50
2018-04-17T20:10:26.630Z,69.50
2018-04-17T20:12:54.202Z,69.50
2018-04-17T20:15:22.569Z,69.60
2018-04-17T20:17:50.131Z,69.50
2018-04-17T20:20:17.715Z,69.50
2018-04-17T20:22:46.083Z,69.50
2018-04-17T20:25:14.424Z,69.50
2018-04-17T20:27:42.024Z,69.50
2018-04-17T20:30:10.508Z,69.60
2018-04-17T20:32:39.906Z,69.50
2018-04-17T20:35:09.576Z,69.60
2018-04-17T20:37:37.141Z,69.50
2018-04-17T20:40:04.707Z,69.60
2018-04-17T20:42:32.388Z,69.50
2018-04-17T20:45:01.531Z,69.40
2018-04-17T20:47:29.173Z,69.40
2018-04-17T20:49:57.512Z,69.50
2018-04-17T20:52:25.081Z,69.50
2018-04-17T20:54:52.661Z,69.50
2018-04-17T20:57:20.325Z,69.40
2018-04-17T20:59:48.733Z,69.80
2018-04-17T21:02:16.367Z,69.60
2018-04-17T21:04:43.934Z,69.50
2018-04-17T21:07:12.304Z,69.60
2018-04-17T21:09:39.884Z,69.60
2018-04-17T21:12:09.471Z,69.60
2018-04-17T21:14:37.132Z,69.60
2018-04-17T21:17:05.499Z,69.60
2018-04-17T21:19:33.072Z,69.60
2018-04-17T21:22:00.731Z,69.60
2018-04-17T21:24:28.292Z,69.60
2018-04-17T21:26:55.858Z,69.60
2018-04-17T21:29:23.530Z,69.60
2018-04-17T21:31:51.863Z,69.60
2018-04-17T21:34:19.432Z,69.60
2018-04-17T21:36:47.003Z,69.60
2018-04-17T21:39:14.583Z,69.60
2018-04-17T21:41:42.256Z,69.60
2018-04-17T21:44:10.631Z,69.60
2018-04-17T21:46:39.214Z,69.40
2018-04-17T21:49:06.881Z,69.50
2018-04-17T21:51:35.262Z,69.90
2018-04-17T21:54:03.601Z,69.90
2018-04-17T21:56:31.207Z,69.60
2018-04-17T21:58:59.553Z,69.60
2018-04-17T22:01:28.851Z,69.40
2018-04-17T22:03:56.440Z,69.50
2018-04-17T22:06:24.009Z,69.50
2018-04-17T22:08:52.340Z,69.50
2018-04-17T22:11:19.906Z,69.50
2018-04-17T22:13:47.477Z,69.40
2018-04-17T22:16:15.679Z,69.50
2018-04-17T22:18:43.339Z,69.40
2018-04-17T22:21:11.681Z,69.40
2018-04-17T22:23:40.304Z,69.40
2018-04-17T22:26:08.983Z,69.40
2018-04-17T22:28:36.552Z,69.40
2018-04-17T22:31:04.238Z,69.40
2018-04-17T22:33:32.582Z,69.40
2018-04-17T22:36:00.268Z,69.40
2018-04-17T22:38:28.599Z,69.50
2018-04-17T22:40:56.171Z,69.50
2018-04-17T22:43:23.748Z,69.40
2018-04-17T22:45:51.346Z,69.50
2018-04-17T22:48:18.916Z,70.30
2018-04-17T22:50:46.487Z,69.40
2018-04-17T22:53:14.061Z,70.20
2018-04-17T22:55:41.633Z,69.40
2018-04-17T22:58:09.971Z,69.30
2018-04-17T23:00:38.348Z,69.50
2018-04-17T23:03:05.991Z,69.40
2018-04-17T23:05:34.371Z,69.90
2018-04-17T23:08:01.938Z,69.30
2018-04-17T23:10:30.305Z,69.40
2018-04-17T23:12:57.979Z,69.40
2018-04-17T23:15:26.358Z,69.60
2018-04-17T23:17:54.699Z,69.40
2018-04-17T23:20:22.300Z,69.40
2018-04-17T23:22:50.677Z,69.40
2018-04-17T23:25:18.240Z,69.40
2018-04-17T23:27:46.572Z,69.40
2018-04-17T23:30:14.140Z,69.40
2018-04-17T23:32:41.716Z,69.30
2018-04-17T23:35:10.319Z,69.40
2018-04-17T23:37:39.148Z,69.30
2018-04-17T23:40:06.774Z,69.40
2018-04-17T23:42:34.366Z,69.40
2018-04-17T23:45:01.936Z,69.40
2018-04-17T23:47:29.569Z,69.40
2018-04-17T23:49:57.931Z,69.40
2018-04-17T23:52:25.504Z,69.40
2018-04-17T23:54:53.893Z,69.40
2018-04-17T23:57:22.260Z,69.40
2018-04-17T23:59:50.591Z,70.20
